Flight Track Log - Related Links

Times and Time Zones

All times are in EDT time to prevent confusion due to time zone crossing. See the N664HW flight status page for this flight to view local times or setup timezone preferences in your user account.

Time Position Orientation Groundspeed Altitude Reporting Facility
EDT Latitude Longitude Course Direction KTS MPH feet Rate Location/Type
Thu 05:32:01 PM 36.9764 -92.6575 30° Northeast 96 110 3,800  Level Kansas City Center
Thu 05:33:05 PM 37.0031 -92.6381 30° Northeast 104 120 4,600 624 Climbing Kansas City Center
Thu 05:34:06 PM 37.0247 -92.6139 42° Northeast 104 120 5,100 480 Climbing Kansas City Center
Thu 05:35:10 PM 37.0458 -92.5836 49° Northeast 108 124 5,600 581 Climbing Kansas City Center
Thu 05:36:10 PM 37.0725 -92.5433 48° Northeast 116 133 6,300 541 Climbing Kansas City Center
Thu 05:37:12 PM 37.0961 -92.5094 49° Northeast 122 140 6,700 381 Climbing Kansas City Center
Thu 05:38:16 PM 37.1225 -92.4789 43° Northeast 126 145 7,100 435 Climbing Kansas City Center
Thu 05:39:16 PM 37.1469 -92.4433 49° Northeast 130 150 7,600 446 Climbing Kansas City Center
Thu 05:40:17 PM 37.1708 -92.4069 51° Northeast 133 153 8,000 432 Climbing Kansas City Center
Thu 05:41:21 PM 37.1992 -92.3814 36° Northeast 131 151 8,500 480 Climbing Kansas City Center
Thu 05:42:22 PM 37.2247 -92.3439 49° Northeast 122 140 9,000 290 Climbing Kansas City Center
Thu 05:43:25 PM 37.2453 -92.3058 56° Northeast 124 143 9,100 48 Climbing Kansas City Center
Thu 05:44:27 PM 37.2703 -92.2722 47° Northeast 128 147 9,100  Level Kansas City Center
Thu 05:45:28 PM 37.2994 -92.2453 36° Northeast 130 150 9,100  Level Kansas City Center
Thu 05:46:32 PM 37.3272 -92.2164 40° Northeast 130 150 9,100  Level Kansas City Center
Thu 05:47:33 PM 37.3461 -92.1756 60° Northeast 132 152 9,100  Level Kansas City Center
Thu 05:48:36 PM 37.3731 -92.1289 54° Northeast 135 155 9,100  Level Kansas City Center
Thu 05:49:37 PM 37.4003 -92.0969 43° Northeast 136 157 9,100  Level Kansas City Center
Thu 05:50:37 PM 37.4256 -92.0642 46° Northeast 132 152 9,100 192 Level Kansas City Center
Thu 05:51:42 PM 37.4472 -92.0308 51° Northeast 126 145 9,500 336 Climbing Kansas City Center
Thu 05:52:42 PM 37.4669 -92.0017 50° Northeast 115 132 9,800 290 Climbing Kansas City Center
Thu 05:53:46 PM 37.4853 -91.9700 54° Northeast 112 129 10,100 288 Climbing Kansas City Center
Thu 05:54:47 PM 37.5028 -91.9408 53° Northeast 107 123 10,400 339 Climbing Kansas City Center
Thu 05:55:50 PM 37.5261 -91.9067 49° Northeast 107 123 10,800 339 Climbing Kansas City Center
Thu 05:56:51 PM 37.5444 -91.8792 50° Northeast 105 121 11,100 197 Climbing Kansas City Center
Thu 05:57:52 PM 37.5642 -91.8497 46° Northeast 107 123 11,200  Climbing Kansas City Center
Thu 05:58:00 PM 37.5756 -91.8380 46° Northeast  Level FlightAware Approximate
Thu 05:58:56 PM 37.5869 -91.8178 48° Northeast 118 136 11,100  Level Kansas City Center
Thu 05:59:57 PM 37.6133 -91.7864 43° Northeast 126 145 11,100 49 Level Kansas City Center
Thu 06:00:58 PM 37.6400 -91.7581 40° Northeast 126 145 11,200  Climbing Kansas City Center
Thu 06:02:01 PM 37.6733 -91.7269 36° Northeast 125 144 11,100 -48 Descending Kansas City Center
Thu 06:03:03 PM 37.6989 -91.6933 46° Northeast 131 151 11,100  Level Kansas City Center
Thu 06:04:06 PM 37.7247 -91.6628 43° Northeast 129 148 11,100  Level Kansas City Center
Thu 06:05:07 PM 37.7494 -91.6283 48° Northeast 131 151 11,100 49 Level Kansas City Center
Thu 06:06:08 PM 37.7733 -91.5953 48° Northeast 129 148 11,200  Climbing Kansas City Center
Thu 06:07:12 PM 37.7978 -91.5625 47° Northeast 128 147 11,100 -48 Descending Kansas City Center
Thu 06:08:13 PM 37.8281 -91.5219 47° Northeast 130 150 11,100 49 Level Kansas City Center
Thu 06:09:14 PM 37.8533 -91.4886 46° Northeast 131 151 11,200  Climbing Kansas City Center
Thu 06:10:18 PM 37.8761 -91.4564 48° Northeast 126 145 11,100 -48 Descending Kansas City Center
Thu 06:11:19 PM 37.9025 -91.4244 44° Northeast 130 150 11,100  Level Kansas City Center
Thu 06:12:22 PM 37.9294 -91.3903 45° Northeast 132 152 11,100  Level Kansas City Center
Thu 06:13:23 PM 37.9517 -91.3531 53° Northeast 134 154 11,100 -48 Level Kansas City Center
Thu 06:14:26 PM 37.9803 -91.3133 48° Northeast 130 150 11,000 -48 Descending Kansas City Center
Thu 06:15:27 PM 38.0050 -91.2806 46° Northeast 129 148 11,000 97 Level Kansas City Center
Thu 06:16:30 PM 38.0297 -91.2472 47° Northeast 129 148 11,200 48 Climbing Kansas City Center
Thu 06:17:31 PM 38.0553 -91.2133 46° Northeast 130 150 11,100 -48 Descending Kansas City Center
Thu 06:18:35 PM 38.0794 -91.1786 49° Northeast 131 151 11,100  Level Kansas City Center
Thu 06:19:37 PM 38.1053 -91.1461 45° Northeast 130 150 11,100  Level Kansas City Center
Thu 06:20:38 PM 38.1311 -91.1106 47° Northeast 133 153 11,100  Level Kansas City Center
Thu 06:21:38 PM 38.1592 -91.0656 52° Northeast 135 155 11,100  Level Kansas City Center
Thu 06:22:42 PM 38.1842 -91.0328 46° Northeast 134 154 11,100  Level Kansas City Center
Thu 06:23:45 PM 38.2125 -91.0000 42° Northeast 136 157 11,100  Level Kansas City Center
Thu 06:24:46 PM 38.2378 -90.9633 49° Northeast 138 159 11,100  Level Kansas City Center
Thu 06:25:49 PM 38.2675 -90.9364 35° Northeast 134 154 11,100 -96 Level Kansas City Center
Thu 06:26:51 PM 38.2964 -90.9036 42° Northeast 137 158 10,900 -344 Descending Kansas City Center
Thu 06:27:51 PM 38.3319 -90.8533 48° Northeast 155 178 10,400 -484 Descending Kansas City Center
Thu 06:28:55 PM 38.3700 -90.8200 34° Northeast 162 186 9,900 -472 Descending Kansas City Center
Thu 06:29:58 PM 38.4056 -90.7825 40° Northeast 167 192 9,400 -528 Descending Kansas City Center
Thu 06:31:00 PM 38.4361 -90.7353 50° Northeast 171 197 8,800 -541 Descending Kansas City Center
Thu 06:32:00 PM 38.4697 -90.6925 45° Northeast 171 197 8,300 -390 Descending Kansas City Center
Thu 06:33:03 PM 38.5053 -90.6606 35° Northeast 160 184 8,000 -97 Descending Kansas City Center
Thu 06:34:04 PM 38.5422 -90.6181 42° Northeast 151 174 8,100 48 Climbing Kansas City Center
Thu 06:35:07 PM 38.5658 -90.5778 53° Northeast 152 175 8,100  Level Kansas City Center
Thu 06:36:08 PM 38.5747 -90.5239 78° East 159 183 8,100  Level Kansas City Center
Thu 06:37:09 PM 38.5997 -90.4819 53° Northeast 149 171 8,100  Level Kansas City Center
Thu 06:38:13 PM 38.6250 -90.4450 49° Northeast 142 163 8,100  Level Kansas City Center
Thu 06:39:14 PM 38.6572 -90.3975 49° Northeast 146 168 8,100 -145 Level Kansas City Center
Thu 06:40:17 PM 38.6806 -90.3564 54° Northeast 147 169 7,800 -387 Descending Kansas City Center
Thu 06:41:18 PM 38.7092 -90.3147 49° Northeast 156 180 7,300 -435 Descending Kansas City Center
Thu 06:42:21 PM 38.7442 -90.2750 42° Northeast 167 192 6,900 -634 Descending Kansas City Center
Thu 06:43:21 PM 38.7847 -90.2289 42° Northeast 166 191 6,000 -864 Descending Kansas City Center
Thu 06:44:26 PM 38.8186 -90.1856 45° Northeast 167 192 5,100 -864 Descending Kansas City Center
Thu 06:45:26 PM 38.8364 -90.1317 67° East 165 190 4,200 -836 Descending Kansas City Center
Thu 06:46:28 PM 38.8414 -90.0692 84° East 173 199 3,400 -672 Descending Kansas City Center
Thu 06:47:31 PM 38.8292 -90.0136 106° East 167 192 2,800 -629 Descending Kansas City Center
Thu 06:48:32 PM 38.8522 -89.9839 45° Northeast 147 169 2,100 -836 Descending Kansas City Center
Thu 06:49:33 PM 38.8781 -90.0072 325° Northwest 123 142 1,100 -672 Descending Kansas City Center
Thu 06:50:37 PM 38.8892 -90.0367 296° West 101 116 700 -375 Descending Kansas City Center
Thu 06:52:00 PM 38.8833 -90.0333 49° Northeast  Level FlightAware Approximate

Login

Don't have an account? Register now (free) for customized features, flight alerts, and more!